createdAt,value
2023-03-06T00:01:02.170Z,-3.95
2023-03-06T00:03:30.262Z,-3.90
2023-03-06T00:05:59.215Z,-3.86
2023-03-06T00:08:28.835Z,-3.83
2023-03-06T00:10:57.239Z,-3.79
2023-03-06T00:13:26.905Z,-3.74
2023-03-06T00:15:54.860Z,-3.71
2023-03-06T00:18:22.684Z,-3.69
2023-03-06T00:20:50.479Z,-3.68
2023-03-06T00:23:18.492Z,-3.66
2023-03-06T00:25:46.274Z,-3.65
2023-03-06T00:28:15.932Z,-3.64
2023-03-06T00:30:46.206Z,-3.64
2023-03-06T00:33:14.109Z,-3.64
2023-03-06T00:35:42.216Z,-3.66
2023-03-06T00:38:11.994Z,-3.68
2023-03-06T00:40:40.566Z,-3.70
2023-03-06T00:43:08.421Z,-3.72
2023-03-06T00:45:36.532Z,-3.74
2023-03-06T00:48:05.092Z,-3.75
2023-03-06T00:50:32.810Z,-3.74
2023-03-06T00:53:00.812Z,-3.74
2023-03-06T00:55:29.701Z,-3.72
2023-03-06T00:57:57.466Z,-3.67
2023-03-06T06:19:15.590Z,-4.57
2023-03-06T06:21:43.321Z,-4.47
2023-03-06T06:24:11.148Z,-4.39
2023-03-06T06:26:39.534Z,-4.30
2023-03-06T06:29:07.273Z,-4.21
2023-03-06T06:31:36.944Z,-4.10
2023-03-06T06:34:06.783Z,-3.98
2023-03-06T06:36:34.848Z,-3.85
2023-03-06T06:39:02.708Z,-3.71
2023-03-06T06:41:50.600Z,-3.55
2023-03-06T06:44:19.486Z,-3.34
2023-03-06T06:47:21.408Z,-3.15
2023-03-06T06:49:39.635Z,-2.93
2023-03-06T06:52:07.805Z,-2.77
2023-03-06T06:54:35.693Z,-2.63
2023-03-06T06:57:03.439Z,-2.50
2023-03-06T06:59:31.201Z,-2.36
2023-03-06T07:01:58.963Z,-2.22
2023-03-06T07:04:26.735Z,-2.06
2023-03-06T07:06:58.588Z,-1.91
2023-03-06T07:09:26.652Z,-1.75
2023-03-06T07:11:54.628Z,-1.61
2023-03-06T07:14:22.414Z,-1.48
2023-03-06T07:16:50.187Z,-1.39
2023-03-06T07:19:18.013Z,-1.32
2023-03-06T07:21:45.986Z,-1.27
2023-03-06T07:24:13.773Z,-1.26
2023-03-06T07:26:46.978Z,-1.25
2023-03-06T07:29:15.288Z,-1.24
2023-03-06T07:31:43.529Z,-1.21
2023-03-06T07:34:14.551Z,-1.13
2023-03-06T07:36:42.472Z,-1.05
2023-03-06T07:39:10.475Z,-0.99
2023-03-06T07:41:38.344Z,-0.91
2023-03-06T07:44:06.198Z,-0.79
2023-03-06T07:46:34.333Z,-0.68
2023-03-06T07:49:02.165Z,-0.54
2023-03-06T07:51:29.998Z,-0.42
2023-03-06T07:53:57.727Z,-0.30
2023-03-06T07:56:25.485Z,-0.16
2023-03-06T07:58:54.351Z,-0.03
2023-03-06T08:01:25.766Z,0.12
2023-03-06T08:03:54.319Z,0.27
2023-03-06T08:06:25.296Z,0.40
2023-03-06T08:08:54.830Z,0.50
2023-03-06T08:11:25.895Z,0.61
2023-03-06T08:13:54.892Z,0.72
2023-03-06T08:16:25.791Z,0.81
2023-03-06T08:18:54.030Z,0.92
2023-03-06T08:21:24.758Z,1.03
2023-03-06T08:23:53.600Z,1.14
2023-03-06T08:26:27.350Z,1.21
2023-03-06T08:28:57.886Z,1.30
2023-03-06T08:31:28.145Z,1.39
2023-03-06T08:33:57.574Z,1.46
2023-03-06T08:36:26.084Z,1.52
2023-03-06T08:38:54.685Z,1.58
2023-03-06T08:41:23.659Z,1.69
2023-03-06T08:43:52.467Z,1.80
2023-03-06T08:46:28.261Z,1.85
2023-03-06T08:49:00.067Z,1.90
2023-03-06T08:51:29.220Z,1.94
2023-03-06T08:53:58.536Z,1.96
2023-03-06T08:56:30.654Z,2.00
2023-03-06T08:59:00.628Z,2.07
2023-03-06T09:01:31.571Z,2.12
2023-03-06T09:04:02.820Z,2.14
2023-03-06T09:06:33.852Z,2.13
2023-03-06T09:09:02.507Z,2.10
2023-03-06T09:11:30.813Z,2.10
2023-03-06T09:13:59.086Z,2.13
2023-03-06T09:16:27.579Z,2.17
2023-03-06T09:18:55.656Z,2.22
2023-03-06T09:21:25.003Z,2.26
2023-03-06T09:23:52.914Z,2.29
2023-03-06T09:26:20.986Z,2.29
2023-03-06T09:28:48.947Z,2.30
2023-03-06T09:31:19.790Z,2.31
2023-03-06T09:33:48.735Z,2.35
2023-03-06T09:36:20.371Z,2.45
2023-03-06T09:38:50.188Z,2.53
2023-03-06T09:41:24.869Z,2.56
2023-03-06T09:43:59.282Z,2.57
2023-03-06T09:46:53.523Z,2.56
2023-03-06T09:49:21.638Z,2.60
2023-03-06T09:51:59.881Z,2.68
2023-03-06T09:54:58.938Z,2.76
2023-03-06T09:57:37.355Z,2.81
2023-03-06T10:00:11.873Z,2.82
2023-03-06T10:02:50.825Z,2.84
2023-03-06T10:05:26.319Z,2.86
2023-03-06T10:08:03.014Z,2.90
2023-03-06T10:10:44.863Z,2.95
2023-03-06T10:13:12.775Z,2.99
2023-03-06T10:15:44.591Z,3.05
2023-03-06T10:18:13.152Z,3.04
2023-03-06T10:21:16.985Z,3.00
2023-03-06T10:23:56.235Z,2.93
2023-03-06T10:26:26.737Z,2.91
2023-03-06T10:29:13.088Z,2.87
2023-03-06T10:31:49.574Z,2.83
2023-03-06T10:34:22.429Z,2.79
2023-03-06T10:36:51.098Z,2.75
2023-03-06T10:39:22.410Z,2.65
2023-03-06T10:41:50.441Z,2.55
2023-03-06T10:44:23.708Z,2.46
2023-03-06T10:46:53.641Z,2.42
2023-03-06T10:49:31.432Z,2.39
2023-03-06T10:52:04.115Z,2.32
2023-03-06T10:54:37.898Z,2.30
2023-03-06T10:57:21.556Z,2.32
2023-03-06T11:00:38.168Z,2.38
2023-03-06T11:03:25.207Z,2.39
2023-03-06T11:05:56.014Z,2.36
2023-03-06T11:08:24.397Z,2.37
2023-03-06T11:11:36.815Z,2.40
2023-03-06T11:14:16.446Z,2.40
2023-03-06T11:16:53.245Z,2.39
2023-03-06T11:19:25.908Z,2.42
2023-03-06T11:22:06.254Z,2.46
2023-03-06T11:24:44.368Z,2.51
2023-03-06T11:27:18.212Z,2.54
2023-03-06T11:29:49.565Z,2.56
2023-03-06T11:32:29.401Z,2.57
2023-03-06T11:35:12.431Z,2.59
2023-03-06T11:37:54.007Z,2.60
2023-03-06T11:40:30.948Z,2.61
2023-03-06T11:43:23.503Z,2.67
2023-03-06T11:46:12.773Z,2.74
2023-03-06T11:48:54.444Z,2.73
2023-03-06T11:51:26.509Z,2.68
2023-03-06T11:53:55.399Z,2.62
2023-03-06T11:56:29.474Z,2.57
2023-03-06T11:59:29.325Z,2.53
2023-03-06T12:02:03.312Z,2.46
2023-03-06T12:04:33.865Z,2.41
2023-03-06T12:07:19.988Z,2.37
2023-03-06T12:12:54.294Z,2.29
2023-03-06T12:15:40.182Z,2.24
2023-03-06T12:18:07.949Z,2.20
2023-03-06T12:21:04.608Z,2.17
2023-03-06T12:23:55.650Z,2.14
2023-03-06T12:26:29.400Z,2.10
2023-03-06T12:29:11.395Z,2.04
2023-03-06T12:31:40.213Z,2.00
2023-03-06T12:34:21.170Z,1.98
2023-03-06T12:37:14.933Z,1.95
2023-03-06T12:40:24.570Z,1.92
2023-03-06T12:43:18.849Z,1.91
2023-03-06T12:45:47.662Z,1.88
2023-03-06T12:48:22.681Z,1.85
2023-03-06T12:50:51.204Z,1.80
2023-03-06T12:53:27.830Z,1.76
2023-03-06T12:55:58.663Z,1.73
2023-03-06T12:58:29.505Z,1.74
2023-03-06T13:01:37.869Z,1.76
2023-03-06T13:04:30.579Z,1.79
2023-03-06T13:07:28.045Z,1.80
2023-03-06T13:10:03.775Z,1.79
2023-03-06T13:12:55.907Z,1.76
2023-03-06T13:15:29.728Z,1.71
2023-03-06T13:17:58.273Z,1.62
2023-03-06T13:20:43.162Z,1.55
2023-03-06T13:23:52.285Z,1.51
2023-03-06T13:26:26.310Z,1.49
2023-03-06T13:28:56.297Z,1.49
2023-03-06T13:31:48.960Z,1.51
2023-03-06T13:34:31.699Z,1.54
2023-03-06T13:37:32.108Z,1.57
2023-03-06T13:39:59.967Z,1.59
2023-03-06T13:42:30.958Z,1.61
2023-03-06T13:45:08.600Z,1.64
2023-03-06T13:50:48.392Z,1.68
2023-03-06T13:53:18.790Z,1.68
2023-03-06T13:56:17.168Z,1.70
2023-03-06T13:59:11.506Z,1.71
2023-03-06T14:01:50.023Z,1.75
2023-03-06T14:04:26.034Z,1.78
2023-03-06T14:07:18.466Z,1.80
2023-03-06T14:09:51.687Z,1.80
2023-03-06T14:12:26.570Z,1.82
2023-03-06T14:15:11.963Z,1.81
2023-03-06T14:17:54.372Z,1.79
2023-03-06T14:20:32.375Z,1.78
2023-03-06T14:23:30.895Z,1.77
2023-03-06T14:26:01.297Z,1.77
2023-03-06T14:28:30.928Z,1.76
2023-03-06T14:31:01.371Z,1.77
2023-03-06T14:33:38.120Z,1.77
2023-03-06T14:36:10.672Z,1.78
2023-03-06T14:38:45.998Z,1.79
2023-03-06T14:41:24.016Z,1.81
2023-03-06T14:43:51.981Z,1.81
2023-03-06T14:46:22.412Z,1.80
2023-03-06T14:48:50.378Z,1.80
2023-03-06T14:51:25.413Z,1.80
2023-03-06T14:53:54.748Z,1.82
2023-03-06T14:56:26.075Z,1.81
2023-03-06T14:59:02.010Z,1.81
2023-03-06T15:01:37.887Z,1.80
2023-03-06T15:04:24.535Z,1.80
2023-03-06T15:06:54.016Z,1.80
2023-03-06T15:09:27.713Z,1.81
2023-03-06T15:12:01.585Z,1.81
2023-03-06T15:14:38.770Z,1.82
2023-03-06T15:17:18.708Z,1.82
2023-03-06T15:19:51.803Z,1.82
2023-03-06T15:22:27.857Z,1.81
2023-03-06T15:25:21.226Z,1.81
2023-03-06T15:28:00.787Z,1.81
2023-03-06T15:30:36.710Z,1.81
2023-03-06T15:33:10.725Z,1.81
2023-03-06T15:35:38.848Z,1.79
2023-03-06T15:38:31.335Z,1.78
2023-03-06T15:41:01.555Z,1.76
2023-03-06T15:43:35.253Z,1.76
2023-03-06T15:46:05.522Z,1.75
2023-03-06T15:48:36.634Z,1.74
2023-03-06T15:51:05.181Z,1.72
2023-03-06T15:53:33.274Z,1.72
2023-03-06T15:56:02.098Z,1.69
2023-03-06T15:58:33.721Z,1.67
2023-03-06T16:01:01.495Z,1.65
2023-03-06T16:03:29.379Z,1.63
2023-03-06T16:05:57.315Z,1.61
2023-03-06T16:08:25.077Z,1.58
2023-03-06T16:10:52.952Z,1.57
2023-03-06T16:13:27.157Z,1.54
2023-03-06T16:15:55.345Z,1.51
2023-03-06T16:18:23.401Z,1.48
2023-03-06T16:20:51.368Z,1.47
2023-03-06T16:23:19.156Z,1.45
2023-03-06T16:25:49.491Z,1.43
2023-03-06T16:28:18.185Z,1.41
2023-03-06T16:30:46.476Z,1.41
2023-03-06T16:33:14.570Z,1.40
2023-03-06T16:35:44.626Z,1.41
2023-03-06T16:38:12.469Z,1.40
2023-03-06T16:40:41.637Z,1.40
2023-03-06T16:43:10.724Z,1.40
2023-03-06T16:45:40.770Z,1.40
2023-03-06T16:48:14.922Z,1.40
2023-03-06T16:50:43.278Z,1.42
2023-03-06T16:53:11.330Z,1.41
2023-03-06T16:55:39.113Z,1.41
2023-03-06T16:58:08.800Z,1.41
2023-03-06T17:00:37.187Z,1.42
2023-03-06T17:03:04.971Z,1.42
2023-03-06T17:05:34.869Z,1.43
2023-03-06T17:08:03.764Z,1.43
2023-03-06T17:10:31.544Z,1.41
2023-03-06T17:12:59.308Z,1.41
2023-03-06T17:15:27.252Z,1.40
2023-03-06T17:17:55.210Z,1.40
2023-03-06T17:20:24.122Z,1.39
2023-03-06T17:22:52.067Z,1.38
2023-03-06T17:25:19.983Z,1.38
2023-03-06T17:27:47.862Z,1.38
2023-03-06T17:30:15.807Z,1.38
2023-03-06T17:32:43.625Z,1.37
2023-03-06T17:35:11.392Z,1.38
2023-03-06T17:37:39.405Z,1.38
2023-03-06T17:40:09.294Z,1.38
2023-03-06T17:42:37.112Z,1.38
2023-03-06T17:45:05.720Z,1.39
2023-03-06T17:47:33.491Z,1.39
2023-03-06T17:50:01.294Z,1.39
2023-03-06T17:52:29.323Z,1.40
2023-03-06T17:54:57.082Z,1.40
2023-03-06T17:57:25.054Z,1.39
2023-03-06T17:59:53.230Z,1.39
2023-03-06T18:02:21.092Z,1.38
2023-03-06T18:04:48.998Z,1.38
2023-03-06T18:07:17.129Z,1.38
2023-03-06T18:09:45.036Z,1.37
2023-03-06T18:12:12.853Z,1.37
2023-03-06T18:14:41.028Z,1.37
2023-03-06T18:17:09.096Z,1.37
2023-03-06T18:19:36.964Z,1.37
2023-03-06T18:22:04.955Z,1.38
2023-03-06T18:24:32.756Z,1.38
2023-03-06T18:27:00.660Z,1.38
2023-03-06T18:29:28.430Z,1.38
2023-03-06T18:31:58.896Z,1.38
2023-03-06T18:34:26.824Z,1.37
2023-03-06T18:36:54.590Z,1.37
2023-03-06T18:39:22.554Z,1.37
2023-03-06T18:41:50.417Z,1.36
2023-03-06T18:44:19.102Z,1.35
2023-03-06T18:46:47.175Z,1.34
2023-03-06T18:49:16.430Z,1.32
2023-03-06T18:51:44.746Z,1.30
2023-03-06T18:54:12.611Z,1.27
2023-03-06T18:56:44.368Z,1.26
2023-03-06T18:59:18.533Z,1.24
2023-03-06T19:01:47.790Z,1.20
2023-03-06T19:04:15.943Z,1.16
2023-03-06T19:06:43.826Z,1.14
2023-03-06T19:09:11.708Z,1.14
2023-03-06T19:11:39.870Z,1.12
2023-03-06T19:14:07.839Z,1.10
2023-03-06T19:16:35.719Z,1.09
2023-03-06T19:19:03.665Z,1.08
2023-03-06T19:21:31.536Z,1.08
2023-03-06T19:23:59.604Z,1.07
2023-03-06T19:26:28.530Z,1.07
2023-03-06T19:28:56.677Z,1.07
2023-03-06T19:31:27.249Z,1.07
2023-03-06T19:33:57.041Z,1.08
2023-03-06T19:36:28.893Z,1.08
2023-03-06T19:38:58.818Z,1.08
2023-03-06T19:41:27.806Z,1.08
2023-03-06T19:43:58.584Z,1.08
2023-03-06T19:46:27.561Z,1.08
2023-03-06T19:48:57.673Z,1.07
2023-03-06T19:51:26.486Z,1.06
2023-03-06T19:53:54.372Z,1.07
2023-03-06T19:56:26.424Z,1.06
2023-03-06T19:58:55.045Z,1.06
2023-03-06T20:01:25.115Z,1.04
2023-03-06T20:04:00.390Z,1.03
2023-03-06T20:06:31.588Z,1.02
2023-03-06T20:09:00.886Z,1.01
2023-03-06T20:11:30.059Z,1.00
2023-03-06T20:13:59.933Z,0.99
2023-03-06T20:16:29.372Z,0.97
2023-03-06T20:19:00.717Z,0.95
2023-03-06T20:21:31.101Z,0.94
2023-03-06T20:23:59.680Z,0.92
2023-03-06T20:26:31.456Z,0.91
2023-03-06T20:28:59.385Z,0.89
2023-03-06T20:31:30.961Z,0.89
2023-03-06T20:33:59.887Z,0.88
2023-03-06T20:36:36.110Z,0.88
2023-03-06T20:39:09.568Z,0.87
2023-03-06T20:41:37.595Z,0.86
2023-03-06T20:44:07.377Z,0.86
2023-03-06T20:46:35.648Z,0.85
2023-03-06T20:49:04.035Z,0.84
2023-03-06T20:51:36.115Z,0.81
2023-03-06T20:54:04.399Z,0.77
2023-03-06T20:56:34.315Z,0.75
2023-03-06T20:59:03.283Z,0.73
2023-03-06T21:01:34.314Z,0.71
2023-03-06T21:04:04.637Z,0.71
2023-03-06T21:06:32.990Z,0.69
2023-03-06T21:09:01.384Z,0.67
2023-03-06T21:11:29.621Z,0.65
2023-03-06T21:13:57.856Z,0.63
2023-03-06T21:16:26.206Z,0.63
2023-03-06T21:18:55.383Z,0.61
2023-03-06T21:21:26.357Z,0.59
2023-03-06T21:23:54.505Z,0.59
2023-03-06T21:26:25.942Z,0.58
2023-03-06T21:28:54.372Z,0.57
2023-03-06T21:31:22.565Z,0.57
2023-03-06T21:33:51.364Z,0.56
2023-03-06T21:36:21.827Z,0.56
2023-03-06T21:38:51.010Z,0.56
2023-03-06T21:41:24.964Z,0.56
2023-03-06T21:44:02.046Z,0.54
2023-03-06T21:46:30.477Z,0.54
2023-03-06T21:48:58.930Z,0.53
2023-03-06T21:51:27.094Z,0.52
2023-03-06T21:53:55.542Z,0.52
2023-03-06T21:56:25.772Z,0.52
2023-03-06T21:58:55.070Z,0.53
2023-03-06T22:01:29.076Z,0.53
2023-03-06T22:03:58.395Z,0.52
2023-03-06T22:06:28.127Z,0.52
2023-03-06T22:08:57.409Z,0.50
2023-03-06T22:11:26.598Z,0.50
2023-03-06T22:13:54.672Z,0.50
2023-03-06T22:16:22.640Z,0.50
2023-03-06T22:18:51.753Z,0.49
2023-03-06T22:21:22.106Z,0.47
2023-03-06T22:23:57.304Z,0.48
2023-03-06T22:26:26.888Z,0.47
2023-03-06T22:28:54.767Z,0.47
2023-03-06T22:31:25.650Z,0.46
2023-03-06T22:33:54.983Z,0.46
2023-03-06T22:36:23.759Z,0.45
2023-03-06T22:38:57.447Z,0.45
2023-03-06T22:41:26.955Z,0.45
2023-03-06T22:43:59.227Z,0.45
2023-03-06T22:46:27.862Z,0.46
2023-03-06T22:49:00.025Z,0.46
2023-03-06T22:51:29.586Z,0.47
2023-03-06T22:53:58.321Z,0.47
2023-03-06T22:56:26.567Z,0.47
2023-03-06T22:58:54.637Z,0.46
2023-03-06T23:01:25.354Z,0.45
2023-03-06T23:03:55.589Z,0.43
2023-03-06T23:06:24.811Z,0.41
2023-03-06T23:08:59.630Z,0.40
2023-03-06T23:11:28.969Z,0.36
2023-03-06T23:13:57.089Z,0.35
2023-03-06T23:16:25.985Z,0.34
2023-03-06T23:18:54.054Z,0.34
2023-03-06T23:21:23.074Z,0.33
2023-03-06T23:23:52.400Z,0.29
2023-03-06T23:26:23.696Z,0.27
2023-03-06T23:28:52.065Z,0.25
2023-03-06T23:31:23.973Z,0.22
2023-03-06T23:33:51.999Z,0.19
2023-03-06T23:36:19.965Z,0.15
2023-03-06T23:38:47.834Z,0.13
2023-03-06T23:41:18.260Z,0.12
2023-03-06T23:43:47.965Z,0.08
2023-03-06T23:46:16.629Z,0.05
2023-03-06T23:48:44.946Z,0.03
2023-03-06T23:51:21.111Z,0.01
2023-03-06T23:53:57.965Z,-0.04
2023-03-06T23:56:27.851Z,-0.08
2023-03-06T23:58:55.804Z,-0.10
